Time,TemperatureF,DewpointF,PressureIn,WindDirection,WindDirectionDegrees,WindSpeedMPH,WindSpeedGustMPH,Humidity,HourlyPrecipIn,Conditions,Clouds,dailyrainin,SolarRadiationWatts/m^2,SoftwareType,DateUTC
2013-06-16 00:00:00,55.7,54.9,30.02,N/A,-737280,0.0,-999.0,97,0.00,,,0.00,0,Wunderground v.1.15,2013-06-16 04:00:00,
2013-06-16 00:05:00,55.7,54.9,30.02,N/A,-737280,0.0,-999.0,97,0.00,,,0.00,0,Wunderground v.1.15,2013-06-16 04:05:00,
2013-06-16 00:10:00,55.7,54.9,30.02,N/A,-737280,0.0,-999.0,97,0.00,,,0.00,0,Wunderground v.1.15,2013-06-16 04:10:00,
2013-06-16 00:15:00,55.3,54.5,30.03,N/A,-737280,0.0,-999.0,97,0.00,,,0.00,0,Wunderground v.1.15,2013-06-16 04:15:00,
2013-06-16 00:20:00,55.3,54.5,30.03,N/A,-737280,0.0,-999.0,97,0.00,,,0.00,0,Wunderground v.1.15,2013-06-16 04:20:00,
2013-06-16 00:25:00,55.0,54.2,30.03,N/A,-737280,0.0,-999.0,97,0.00,,,0.00,0,Wunderground v.1.15,2013-06-16 04:25:00,
2013-06-16 00:30:00,55.0,54.2,30.03,N/A,-737280,0.0,-999.0,97,0.00,,,0.00,0,Wunderground v.1.15,2013-06-16 04:30:00,
2013-06-16 00:35:00,54.8,54.0,30.03,N/A,-737280,0.0,-999.0,97,0.00,,,0.00,0,Wunderground v.1.15,2013-06-16 04:35:00,
2013-06-16 00:40:00,54.8,54.0,30.03,N/A,-737280,0.0,-999.0,97,0.00,,,0.00,0,Wunderground v.1.15,2013-06-16 04:40:00,
2013-06-16 00:45:00,54.7,53.9,30.03,N/A,-737280,0.0,-999.0,97,0.00,,,0.00,0,Wunderground v.1.15,2013-06-16 04:45:00,
2013-06-16 00:50:00,54.7,53.9,30.03,N/A,-737280,0.0,-999.0,97,0.00,,,0.00,0,Wunderground v.1.15,2013-06-16 04:50:00,
2013-06-16 00:55:00,54.5,53.9,30.03,N/A,-737280,0.0,-999.0,98,0.00,,,0.00,0,Wunderground v.1.15,2013-06-16 04:55:00,
2013-06-16 01:00:00,54.5,53.9,30.03,N/A,-737280,0.0,-999.0,98,0.00,,,0.00,0,Wunderground v.1.15,2013-06-16 05:00:00,
2013-06-16 01:05:00,54.4,53.8,30.03,N/A,-737280,0.0,-999.0,98,0.00,,,0.00,0,Wunderground v.1.15,2013-06-16 05:05:00,
2013-06-16 01:10:00,54.4,53.8,30.03,N/A,-737280,0.0,-999.0,98,0.00,,,0.00,0,Wunderground v.1.15,2013-06-16 05:10:00,
2013-06-16 01:15:00,54.2,53.6,30.03,N/A,-737280,0.0,-999.0,98,0.00,,,0.00,0,Wunderground v.1.15,2013-06-16 05:15:00,
2013-06-16 01:20:00,54.2,53.6,30.03,N/A,-737280,0.0,-999.0,98,0.00,,,0.00,0,Wunderground v.1.15,2013-06-16 05:20:00,
2013-06-16 01:25:00,54.1,53.5,30.03,N/A,-737280,0.0,-999.0,98,0.00,,,0.00,0,Wunderground v.1.15,2013-06-16 05:25:00,
2013-06-16 01:30:00,54.1,53.5,30.03,N/A,-737280,0.0,-999.0,98,0.00,,,0.00,0,Wunderground v.1.15,2013-06-16 05:30:00,
2013-06-16 01:35:00,53.8,53.0,30.03,NE,45,0.0,-999.0,97,0.00,,,0.00,0,Wunderground v.1.15,2013-06-16 05:35:00,
2013-06-16 01:40:00,53.8,53.0,30.03,NE,45,0.0,-999.0,97,0.00,,,0.00,0,Wunderground v.1.15,2013-06-16 05:40:00,
2013-06-16 01:45:00,53.7,53.1,30.03,N/A,-737280,0.0,-999.0,98,0.00,,,0.00,0,Wunderground v.1.15,2013-06-16 05:45:00,
2013-06-16 01:50:00,53.7,53.1,30.03,N/A,-737280,0.0,-999.0,98,0.00,,,0.00,0,Wunderground v.1.15,2013-06-16 05:50:00,
2013-06-16 01:55:00,53.4,52.8,30.02,N/A,-737280,0.0,-999.0,98,0.00,,,0.00,0,Wunderground v.1.15,2013-06-16 05:55:00,
2013-06-16 02:00:00,53.4,52.8,30.02,N/A,-737280,0.0,-999.0,98,0.00,,,0.00,0,Wunderground v.1.15,2013-06-16 06:00:00,
2013-06-16 02:05:00,53.2,52.7,30.03,N/A,-737280,0.0,-999.0,98,0.00,,,0.00,0,Wunderground v.1.15,2013-06-16 06:05:00,
2013-06-16 02:10:00,53.2,52.7,30.03,N/A,-737280,0.0,-999.0,98,0.00,,,0.00,0,Wunderground v.1.15,2013-06-16 06:10:00,
2013-06-16 02:15:00,52.8,52.3,30.03,N/A,-737280,0.0,-999.0,98,0.00,,,0.00,0,Wunderground v.1.15,2013-06-16 06:15:00,
2013-06-16 02:20:00,52.8,52.3,30.03,N/A,-737280,0.0,-999.0,98,0.00,,,0.00,0,Wunderground v.1.15,2013-06-16 06:20:00,
2013-06-16 02:25:00,52.7,52.2,30.03,N/A,-737280,0.0,-999.0,98,0.00,,,0.00,0,Wunderground v.1.15,2013-06-16 06:25:00,
2013-06-16 02:30:00,52.7,52.2,30.03,N/A,-737280,0.0,-999.0,98,0.00,,,0.00,0,Wunderground v.1.15,2013-06-16 06:30:00,
2013-06-16 02:35:00,52.7,52.2,30.03,N/A,-737280,0.0,-999.0,98,0.00,,,0.00,0,Wunderground v.1.15,2013-06-16 06:35:00,
2013-06-16 02:40:00,52.7,52.2,30.03,N/A,-737280,0.0,-999.0,98,0.00,,,0.00,0,Wunderground v.1.15,2013-06-16 06:40:00,
2013-06-16 02:45:00,52.5,52.0,30.03,N/A,-737280,0.0,-999.0,98,0.00,,,0.00,0,Wunderground v.1.15,2013-06-16 06:45:00,
2013-06-16 02:50:00,52.5,52.0,30.03,N/A,-737280,0.0,-999.0,98,0.00,,,0.00,0,Wunderground v.1.15,2013-06-16 06:50:00,
2013-06-16 02:55:00,52.3,51.8,30.02,N/A,-737280,0.0,-999.0,98,0.00,,,0.00,0,Wunderground v.1.15,2013-06-16 06:55:00,
2013-06-16 03:00:00,52.3,51.8,30.02,N/A,-737280,0.0,-999.0,98,0.00,,,0.00,0,Wunderground v.1.15,2013-06-16 07:00:00,
2013-06-16 03:05:00,52.1,51.6,30.02,N/A,-737280,0.0,-999.0,98,0.00,,,0.00,0,Wunderground v.1.15,2013-06-16 07:05:00,
2013-06-16 03:10:00,52.1,51.6,30.02,N/A,-737280,0.0,-999.0,98,0.00,,,0.00,0,Wunderground v.1.15,2013-06-16 07:10:00,
2013-06-16 03:15:00,52.0,51.5,30.03,N/A,-737280,0.0,-999.0,98,0.00,,,0.00,0,Wunderground v.1.15,2013-06-16 07:15:00,
2013-06-16 03:20:00,52.0,51.5,30.03,N/A,-737280,0.0,-999.0,98,0.00,,,0.00,0,Wunderground v.1.15,2013-06-16 07:20:00,
2013-06-16 03:25:00,52.1,51.6,30.02,N/A,-737280,0.0,-999.0,98,0.00,,,0.00,0,Wunderground v.1.15,2013-06-16 07:25:00,
2013-06-16 03:30:00,52.1,51.6,30.02,N/A,-737280,0.0,-999.0,98,0.00,,,0.00,0,Wunderground v.1.15,2013-06-16 07:30:00,
2013-06-16 03:35:00,52.0,51.5,30.03,N/A,-737280,0.0,-999.0,98,0.00,,,0.00,0,Wunderground v.1.15,2013-06-16 07:35:00,
2013-06-16 03:40:00,52.0,51.5,30.03,N/A,-737280,0.0,-999.0,98,0.00,,,0.00,0,Wunderground v.1.15,2013-06-16 07:40:00,
2013-06-16 03:45:00,51.9,51.4,30.03,N/A,-737280,0.0,-999.0,98,0.00,,,0.00,0,Wunderground v.1.15,2013-06-16 07:45:00,
2013-06-16 03:50:00,51.9,51.4,30.03,N/A,-737280,0.0,-999.0,98,0.00,,,0.00,0,Wunderground v.1.15,2013-06-16 07:50:00,
2013-06-16 03:55:00,51.8,51.3,30.03,N/A,-737280,0.0,-999.0,98,0.00,,,0.00,0,Wunderground v.1.15,2013-06-16 07:55:00,
2013-06-16 04:00:00,51.8,51.3,30.03,N/A,-737280,0.0,-999.0,98,0.00,,,0.00,0,Wunderground v.1.15,2013-06-16 08:00:00,
2013-06-16 04:05:00,51.8,51.3,30.02,N/A,-737280,0.0,-999.0,98,0.00,,,0.00,0,Wunderground v.1.15,2013-06-16 08:05:00,
2013-06-16 04:10:00,51.8,51.3,30.02,N/A,-737280,0.0,-999.0,98,0.00,,,0.00,0,Wunderground v.1.15,2013-06-16 08:10:00,
2013-06-16 04:15:00,51.9,51.6,30.01,NE,45,0.0,-999.0,99,0.00,,,0.00,0,Wunderground v.1.15,2013-06-16 08:15:00,
2013-06-16 04:20:00,51.9,51.6,30.01,NE,45,0.0,-999.0,99,0.00,,,0.00,0,Wunderground v.1.15,2013-06-16 08:20:00,
2013-06-16 04:25:00,52.1,51.8,30.02,NE,45,0.0,-999.0,99,0.00,,,0.00,0,Wunderground v.1.15,2013-06-16 08:25:00,
2013-06-16 04:30:00,52.1,51.8,30.02,NE,45,0.0,-999.0,99,0.00,,,0.00,0,Wunderground v.1.15,2013-06-16 08:30:00,
2013-06-16 04:35:00,52.1,51.8,30.02,N/A,-737280,0.0,-999.0,99,0.00,,,0.00,0,Wunderground v.1.15,2013-06-16 08:35:00,
2013-06-16 04:40:00,52.1,51.8,30.02,N/A,-737280,0.0,-999.0,99,0.00,,,0.00,0,Wunderground v.1.15,2013-06-16 08:40:00,
2013-06-16 04:45:00,52.1,51.8,30.02,N/A,-737280,0.0,-999.0,99,0.00,,,0.00,0,Wunderground v.1.15,2013-06-16 08:45:00,
2013-06-16 04:50:00,52.1,51.8,30.02,N/A,-737280,0.0,-999.0,99,0.00,,,0.00,0,Wunderground v.1.15,2013-06-16 08:50:00,
2013-06-16 04:55:00,51.9,51.6,30.01,N/A,-737280,0.0,-999.0,99,0.00,,,0.00,0,Wunderground v.1.15,2013-06-16 08:55:00,
2013-06-16 05:00:00,51.9,51.6,30.01,N/A,-737280,0.0,-999.0,99,0.00,,,0.00,0,Wunderground v.1.15,2013-06-16 09:00:00,
2013-06-16 05:05:00,51.8,51.5,30.01,N/A,-737280,0.0,-999.0,99,0.00,,,0.00,0,Wunderground v.1.15,2013-06-16 09:05:00,
2013-06-16 05:10:00,51.8,51.5,30.01,N/A,-737280,0.0,-999.0,99,0.00,,,0.00,0,Wunderground v.1.15,2013-06-16 09:10:00,
2013-06-16 05:15:00,51.7,51.4,30.01,NE,45,0.0,-999.0,99,0.00,,,0.00,0,Wunderground v.1.15,2013-06-16 09:15:00,
2013-06-16 05:20:00,51.7,51.4,30.01,NE,45,0.0,-999.0,99,0.00,,,0.00,0,Wunderground v.1.15,2013-06-16 09:20:00,
2013-06-16 05:25:00,51.8,51.5,30.01,NE,45,0.0,-999.0,99,0.00,,,0.00,0,Wunderground v.1.15,2013-06-16 09:25:00,
2013-06-16 05:30:00,51.8,51.5,30.01,NE,45,0.0,-999.0,99,0.00,,,0.00,0,Wunderground v.1.15,2013-06-16 09:30:00,
2013-06-16 05:35:00,51.6,51.3,30.01,N/A,-737280,0.0,-999.0,99,0.00,,,0.00,0,Wunderground v.1.15,2013-06-16 09:35:00,
2013-06-16 05:40:00,51.6,51.3,30.01,N/A,-737280,0.0,-999.0,99,0.00,,,0.00,0,Wunderground v.1.15,2013-06-16 09:40:00,
2013-06-16 05:45:00,51.7,51.4,30.01,NE,45,0.0,-999.0,99,0.00,,,0.00,1,Wunderground v.1.15,2013-06-16 09:45:00,
2013-06-16 05:50:00,51.7,51.4,30.01,NE,45,0.0,-999.0,99,0.00,,,0.00,1,Wunderground v.1.15,2013-06-16 09:50:00,
2013-06-16 05:55:00,52.1,51.8,30.01,N/A,-737280,0.0,-999.0,99,0.00,,,0.00,9,Wunderground v.1.15,2013-06-16 09:55:00,
2013-06-16 06:00:00,52.1,51.8,30.01,N/A,-737280,0.0,-999.0,99,0.00,,,0.00,9,Wunderground v.1.15,2013-06-16 10:00:00,
2013-06-16 06:05:00,52.5,52.2,30.01,N/A,-737280,0.0,-999.0,99,0.00,,,0.00,11,Wunderground v.1.15,2013-06-16 10:05:00,
2013-06-16 06:10:00,52.5,52.2,30.01,N/A,-737280,0.0,-999.0,99,0.00,,,0.00,11,Wunderground v.1.15,2013-06-16 10:10:00,
2013-06-16 06:15:00,52.8,52.5,30.01,N/A,-737280,0.0,-999.0,99,0.00,,,0.00,7,Wunderground v.1.15,2013-06-16 10:15:00,
2013-06-16 06:20:00,52.8,52.5,30.01,N/A,-737280,0.0,-999.0,99,0.00,,,0.00,7,Wunderground v.1.15,2013-06-16 10:20:00,
2013-06-16 06:25:00,53.1,52.8,30.01,N/A,-737280,0.0,-999.0,99,0.00,,,0.00,8,Wunderground v.1.15,2013-06-16 10:25:00,
2013-06-16 06:30:00,53.1,52.8,30.01,N/A,-737280,0.0,-999.0,99,0.00,,,0.00,8,Wunderground v.1.15,2013-06-16 10:30:00,
2013-06-16 06:35:00,53.4,53.1,30.01,N/A,-737280,0.0,-999.0,99,0.00,,,0.00,8,Wunderground v.1.15,2013-06-16 10:35:00,
2013-06-16 06:40:00,53.4,53.1,30.01,N/A,-737280,0.0,-999.0,99,0.00,,,0.00,8,Wunderground v.1.15,2013-06-16 10:40:00,
2013-06-16 06:45:00,53.7,53.4,30.02,N/A,-737280,0.0,-999.0,99,0.00,,,0.00,11,Wunderground v.1.15,2013-06-16 10:45:00,
2013-06-16 06:50:00,53.7,53.4,30.02,N/A,-737280,0.0,-999.0,99,0.00,,,0.00,11,Wunderground v.1.15,2013-06-16 10:50:00,
2013-06-16 06:55:00,54.2,53.9,30.02,N/A,-737280,0.0,-999.0,99,0.00,,,0.00,15,Wunderground v.1.15,2013-06-16 10:55:00,
2013-06-16 07:00:00,54.2,53.9,30.02,N/A,-737280,0.0,-999.0,99,0.00,,,0.00,15,Wunderground v.1.15,2013-06-16 11:00:00,
2013-06-16 07:05:00,54.5,54.2,30.02,N/A,-737280,0.0,-999.0,99,0.00,,,0.00,15,Wunderground v.1.15,2013-06-16 11:05:00,
2013-06-16 07:10:00,54.5,54.2,30.02,N/A,-737280,0.0,-999.0,99,0.00,,,0.00,15,Wunderground v.1.15,2013-06-16 11:10:00,
2013-06-16 07:15:00,54.9,54.6,30.01,NE,45,0.0,-999.0,99,0.00,,,0.00,28,Wunderground v.1.15,2013-06-16 11:15:00,
2013-06-16 07:20:00,54.9,54.6,30.01,NE,45,0.0,-999.0,99,0.00,,,0.00,28,Wunderground v.1.15,2013-06-16 11:20:00,
2013-06-16 07:25:00,55.5,55.2,30.01,NE,45,0.0,-999.0,99,0.00,,,0.00,36,Wunderground v.1.15,2013-06-16 11:25:00,
2013-06-16 07:30:00,55.5,55.2,30.01,NE,45,0.0,-999.0,99,0.00,,,0.00,36,Wunderground v.1.15,2013-06-16 11:30:00,
2013-06-16 07:35:00,56.0,56.0,30.00,NE,45,0.0,-999.0,100,0.00,,,0.00,24,Wunderground v.1.15,2013-06-16 11:35:00,
2013-06-16 07:40:00,56.0,56.0,30.00,NE,45,0.0,-999.0,100,0.00,,,0.00,24,Wunderground v.1.15,2013-06-16 11:40:00,
2013-06-16 07:45:00,56.1,55.8,30.00,N/A,-737280,0.0,-999.0,99,0.00,,,0.00,15,Wunderground v.1.15,2013-06-16 11:45:00,
2013-06-16 07:50:00,56.1,55.8,30.00,N/A,-737280,0.0,-999.0,99,0.00,,,0.00,15,Wunderground v.1.15,2013-06-16 11:50:00,
2013-06-16 07:55:00,56.4,56.4,30.01,N/A,-737280,0.0,-999.0,100,0.00,,,0.00,28,Wunderground v.1.15,2013-06-16 11:55:00,
2013-06-16 08:00:00,56.4,56.4,30.01,N/A,-737280,0.0,-999.0,100,0.00,,,0.00,28,Wunderground v.1.15,2013-06-16 12:00:00,
2013-06-16 08:05:00,57.1,57.1,30.00,N/A,-737280,0.0,-999.0,100,0.00,,,0.00,41,Wunderground v.1.15,2013-06-16 12:05:00,
2013-06-16 08:10:00,57.1,57.1,30.00,N/A,-737280,0.0,-999.0,100,0.00,,,0.00,41,Wunderground v.1.15,2013-06-16 12:10:00,
2013-06-16 08:15:00,57.4,57.1,30.00,NE,45,0.0,-999.0,99,0.00,,,0.00,53,Wunderground v.1.15,2013-06-16 12:15:00,
2013-06-16 08:20:00,57.4,57.1,30.00,NE,45,0.0,-999.0,99,0.00,,,0.00,53,Wunderground v.1.15,2013-06-16 12:20:00,
2013-06-16 08:25:00,58.3,58.3,29.99,NE,45,0.0,-999.0,100,0.00,,,0.00,71,Wunderground v.1.15,2013-06-16 12:25:00,
2013-06-16 08:30:00,58.3,58.3,29.99,NE,45,0.0,-999.0,100,0.00,,,0.00,71,Wunderground v.1.15,2013-06-16 12:30:00,
2013-06-16 08:35:00,58.9,58.9,29.99,NE,45,0.0,-999.0,100,0.00,,,0.00,64,Wunderground v.1.15,2013-06-16 12:35:00,
2013-06-16 08:40:00,58.9,58.9,29.99,NE,45,0.0,-999.0,100,0.00,,,0.00,64,Wunderground v.1.15,2013-06-16 12:40:00,
2013-06-16 08:45:00,59.6,59.3,29.99,NE,45,0.0,-999.0,99,0.00,,,0.00,69,Wunderground v.1.15,2013-06-16 12:45:00,
2013-06-16 08:50:00,59.6,59.3,29.99,NE,45,0.0,-999.0,99,0.00,,,0.00,69,Wunderground v.1.15,2013-06-16 12:50:00,
2013-06-16 08:55:00,60.4,59.5,29.98,NE,45,0.0,-999.0,97,0.00,,,0.00,89,Wunderground v.1.15,2013-06-16 12:55:00,
2013-06-16 09:00:00,60.4,59.5,29.98,NE,45,0.0,-999.0,97,0.00,,,0.00,89,Wunderground v.1.15,2013-06-16 13:00:00,
2013-06-16 09:05:00,61.7,60.5,29.97,NE,45,0.0,-999.0,96,0.00,,,0.00,100,Wunderground v.1.15,2013-06-16 13:05:00,
2013-06-16 09:10:00,61.7,60.5,29.97,NE,45,0.0,-999.0,96,0.00,,,0.00,100,Wunderground v.1.15,2013-06-16 13:10:00,
2013-06-16 09:15:00,62.8,61.3,29.98,NW,315,1.0,-999.0,95,0.00,,,0.00,93,Wunderground v.1.15,2013-06-16 13:15:00,
2013-06-16 09:20:00,62.8,61.3,29.98,NW,315,1.0,-999.0,95,0.00,,,0.00,93,Wunderground v.1.15,2013-06-16 13:20:00,
2013-06-16 09:25:00,63.6,61.5,29.97,WSW,248,1.0,-999.0,93,0.00,,,0.00,116,Wunderground v.1.15,2013-06-16 13:25:00,
2013-06-16 09:30:00,63.6,61.5,29.97,WSW,248,1.0,-999.0,93,0.00,,,0.00,116,Wunderground v.1.15,2013-06-16 13:30:00,
2013-06-16 09:35:00,65.1,62.7,29.97,West,270,0.0,-999.0,92,0.00,,,0.00,132,Wunderground v.1.15,2013-06-16 13:35:00,
2013-06-16 09:40:00,65.0,62.6,29.97,North,355,1.0,1.0,92,0.00,,,0.00,141,Wunderground v.1.15,2013-06-16 13:40:00,
2013-06-16 09:41:00,65.2,62.8,29.97,NE,36,1.0,2.0,92,0.00,,,0.00,139,Wunderground v.1.15,2013-06-16 13:41:00,
2013-06-16 09:46:00,66.3,62.3,29.97,NE,36,1.0,2.0,87,0.00,,,0.00,127,Wunderground v.1.15,2013-06-16 13:46:00,
2013-06-16 09:51:00,67.1,62.1,29.97,NE,55,0.0,1.0,84,0.00,,,0.00,104,Wunderground v.1.15,2013-06-16 13:51:00,
2013-06-16 09:58:00,68.3,62.2,29.96,SW,226,0.0,1.0,81,0.00,,,0.00,146,Wunderground v.1.15,2013-06-16 13:58:00,
2013-06-16 10:03:00,69.6,62.8,29.96,NE,35,0.0,1.0,79,0.00,,,0.00,95,Wunderground v.1.15,2013-06-16 14:03:00,
2013-06-16 10:08:00,70.8,61.3,29.96,West,279,2.0,2.0,72,0.00,,,0.00,128,Wunderground v.1.15,2013-06-16 14:08:00,
2013-06-16 10:14:00,72.1,60.1,29.96,South,187,1.0,2.0,66,0.00,,,0.00,130,Wunderground v.1.15,2013-06-16 14:14:00,
2013-06-16 10:19:00,73.2,61.2,29.96,SSE,152,3.0,3.0,66,0.00,,,0.00,155,Wunderground v.1.15,2013-06-16 14:19:00,
2013-06-16 10:25:00,73.5,58.3,29.96,SSW,211,3.0,3.0,59,0.00,,,0.00,146,Wunderground v.1.15,2013-06-16 14:25:00,
2013-06-16 10:30:00,73.8,59.0,29.96,West,261,3.0,3.0,60,0.00,,,0.00,197,Wunderground v.1.15,2013-06-16 14:30:00,
2013-06-16 10:35:00,74.3,60.0,29.96,SSE,153,4.0,6.0,61,0.00,,,0.00,202,Wunderground v.1.15,2013-06-16 14:35:00,
2013-06-16 10:40:00,74.2,56.0,29.95,WNW,284,2.0,2.0,53,0.00,,,0.00,192,Wunderground v.1.15,2013-06-16 14:40:00,
2013-06-16 10:45:00,73.7,58.5,29.95,SW,223,1.0,3.0,59,0.00,,,0.00,169,Wunderground v.1.15,2013-06-16 14:45:00,
2013-06-16 10:50:00,73.4,58.7,29.95,ESE,115,2.0,2.0,60,0.00,,,0.00,141,Wunderground v.1.15,2013-06-16 14:50:00,
2013-06-16 10:55:00,73.4,60.5,29.94,SSW,213,0.0,5.0,64,0.00,,,0.00,139,Wunderground v.1.15,2013-06-16 14:55:00,
2013-06-16 11:00:00,73.7,60.3,29.94,NW,310,0.0,1.0,63,0.00,,,0.00,179,Wunderground v.1.15,2013-06-16 15:00:00,
2013-06-16 11:05:00,73.9,58.2,29.94,SSW,213,1.0,3.0,58,0.00,,,0.00,148,Wunderground v.1.15,2013-06-16 15:05:00,
2013-06-16 11:10:00,73.4,60.0,29.93,North,11,1.0,1.0,63,0.00,,,0.00,139,Wunderground v.1.15,2013-06-16 15:10:00,
2013-06-16 11:15:00,73.1,61.5,29.93,WNW,288,0.0,3.0,67,0.00,,,0.00,156,Wunderground v.1.15,2013-06-16 15:15:00,
2013-06-16 11:20:00,73.1,61.1,29.92,NW,306,0.0,1.0,66,0.00,,,0.00,141,Wunderground v.1.15,2013-06-16 15:20:00,
2013-06-16 11:25:00,73.1,58.8,29.92,NNE,23,1.0,3.0,61,0.00,,,0.00,148,Wunderground v.1.15,2013-06-16 15:25:00,
2013-06-16 11:30:00,73.0,60.5,29.92,WNW,300,2.0,2.0,65,0.00,,,0.00,142,Wunderground v.1.15,2013-06-16 15:30:00,
2013-06-16 11:35:00,74.0,60.6,29.92,WNW,297,1.0,3.0,63,0.00,,,0.00,330,Wunderground v.1.15,2013-06-16 15:35:00,
2013-06-16 11:40:00,75.3,60.0,29.91,WSW,253,1.0,2.0,59,0.00,,,0.00,178,Wunderground v.1.15,2013-06-16 15:40:00,
2013-06-16 11:45:00,75.1,61.6,29.91,NW,317,2.0,3.0,63,0.00,,,0.00,281,Wunderground v.1.15,2013-06-16 15:45:00,
2013-06-16 11:50:00,75.8,59.0,29.91,South,182,2.0,2.0,56,0.00,,,0.00,236,Wunderground v.1.15,2013-06-16 15:50:00,
2013-06-16 11:55:00,75.6,54.5,29.91,WSW,247,5.0,6.0,48,0.00,,,0.00,169,Wunderground v.1.15,2013-06-16 15:55:00,
2013-06-16 12:00:00,74.8,56.5,29.91,West,265,2.0,4.0,53,0.00,,,0.00,209,Wunderground v.1.15,2013-06-16 16:00:00,
2013-06-16 12:05:00,74.6,58.4,29.91,South,191,2.0,5.0,57,0.00,,,0.00,160,Wunderground v.1.15,2013-06-16 16:05:00,
2013-06-16 12:11:00,74.6,60.3,29.91,WNW,294,1.0,3.0,61,0.00,,,0.00,204,Wunderground v.1.15,2013-06-16 16:11:00,
2013-06-16 12:16:00,75.6,61.7,29.90,SSW,207,2.0,3.0,62,0.00,,,0.00,214,Wunderground v.1.15,2013-06-16 16:16:00,
2013-06-16 12:21:00,75.9,59.1,29.90,West,265,2.0,3.0,56,0.00,,,0.00,179,Wunderground v.1.15,2013-06-16 16:21:00,
2013-06-16 12:26:00,75.8,58.5,29.90,WSW,257,2.0,9.0,55,0.00,,,0.00,183,Wunderground v.1.15,2013-06-16 16:26:00,
2013-06-16 12:31:00,75.8,59.0,29.89,NW,310,1.0,2.0,56,0.00,,,0.00,151,Wunderground v.1.15,2013-06-16 16:31:00,
2013-06-16 12:36:00,75.7,59.9,29.89,NW,319,1.0,4.0,58,0.00,,,0.00,216,Wunderground v.1.15,2013-06-16 16:36:00,
2013-06-16 12:41:00,76.4,59.0,29.89,WNW,296,2.0,3.0,55,0.00,,,0.00,339,Wunderground v.1.15,2013-06-16 16:41:00,
2013-06-16 12:46:00,76.5,58.6,29.88,SSW,212,1.0,4.0,54,0.00,,,0.00,183,Wunderground v.1.15,2013-06-16 16:46:00,
2013-06-16 12:51:00,76.1,59.8,29.88,SSE,167,2.0,3.0,57,0.00,,,0.00,144,Wunderground v.1.15,2013-06-16 16:51:00,
2013-06-16 12:56:00,76.4,59.0,29.88,SW,216,2.0,6.0,55,0.00,,,0.00,220,Wunderground v.1.15,2013-06-16 16:56:00,
2013-06-16 13:01:00,76.8,61.9,29.87,NNW,343,2.0,4.0,60,0.00,,,0.00,172,Wunderground v.1.15,2013-06-16 17:01:00,
2013-06-16 13:06:00,76.6,58.2,29.87,NW,322,3.0,5.0,53,0.00,,,0.00,225,Wunderground v.1.15,2013-06-16 17:06:00,
2013-06-16 13:11:00,76.9,62.9,29.87,South,187,1.0,2.0,62,0.00,,,0.00,176,Wunderground v.1.15,2013-06-16 17:11:00,
2013-06-16 13:16:00,76.8,61.9,29.87,NNE,12,0.0,3.0,60,0.00,,,0.00,153,Wunderground v.1.15,2013-06-16 17:16:00,
2013-06-16 13:21:00,76.6,62.1,29.87,WNW,282,1.0,1.0,61,0.00,,,0.00,109,Wunderground v.1.15,2013-06-16 17:21:00,
2013-06-16 13:26:00,76.4,62.9,29.87,WSW,247,1.0,3.0,63,0.00,,,0.00,146,Wunderground v.1.15,2013-06-16 17:26:00,
2013-06-16 13:32:00,76.4,62.4,29.87,WSW,248,2.0,2.0,62,0.00,,,0.00,146,Wunderground v.1.15,2013-06-16 17:32:00,
2013-06-16 13:37:00,76.7,63.2,29.87,SW,215,2.0,2.0,63,0.00,,,0.00,181,Wunderground v.1.15,2013-06-16 17:37:00,
2013-06-16 13:42:00,77.0,61.6,29.86,SW,234,1.0,5.0,59,0.00,,,0.00,167,Wunderground v.1.15,2013-06-16 17:42:00,
2013-06-16 13:47:00,76.9,61.5,29.85,WSW,248,1.0,5.0,59,0.00,,,0.00,178,Wunderground v.1.15,2013-06-16 17:47:00,
2013-06-16 13:52:00,76.9,62.0,29.85,NE,49,1.0,2.0,60,0.00,,,0.00,185,Wunderground v.1.15,2013-06-16 17:52:00,
2013-06-16 13:57:00,77.3,60.9,29.85,South,190,1.0,6.0,57,0.00,,,0.00,294,Wunderground v.1.15,2013-06-16 17:57:00,
2013-06-16 14:02:00,77.8,62.8,29.85,WNW,298,1.0,5.0,60,0.00,,,0.00,207,Wunderground v.1.15,2013-06-16 18:02:00,
2013-06-16 14:07:00,77.7,60.2,29.84,ESE,105,2.0,5.0,55,0.00,,,0.00,169,Wunderground v.1.15,2013-06-16 18:07:00,
2013-06-16 14:12:00,77.4,61.0,29.83,SE,145,1.0,3.0,57,0.00,,,0.00,142,Wunderground v.1.15,2013-06-16 18:12:00,
2013-06-16 14:17:00,77.3,61.9,29.83,SE,128,1.0,3.0,59,0.00,,,0.00,192,Wunderground v.1.15,2013-06-16 18:17:00,
2013-06-16 14:22:00,77.4,61.9,29.83,SSW,199,1.0,2.0,59,0.00,,,0.00,253,Wunderground v.1.15,2013-06-16 18:22:00,
2013-06-16 14:27:00,77.8,64.2,29.82,SE,146,1.0,4.0,63,0.00,,,0.00,255,Wunderground v.1.15,2013-06-16 18:27:00,
2013-06-16 14:32:00,78.6,64.0,29.82,North,360,4.0,4.0,61,0.00,,,0.00,301,Wunderground v.1.15,2013-06-16 18:32:00,
2013-06-16 14:37:00,78.9,64.3,29.82,SSW,192,2.0,4.0,61,0.00,,,0.00,320,Wunderground v.1.15,2013-06-16 18:37:00,
2013-06-16 14:42:00,79.3,64.2,29.82,NW,323,2.0,6.0,60,0.00,,,0.00,292,Wunderground v.1.15,2013-06-16 18:42:00,
2013-06-16 14:47:00,79.2,66.0,29.82,NW,321,1.0,6.0,64,0.00,,,0.00,206,Wunderground v.1.15,2013-06-16 18:47:00,
2013-06-16 14:52:00,78.7,63.6,29.83,NE,46,2.0,4.0,60,0.00,,,0.00,202,Wunderground v.1.15,2013-06-16 18:52:00,
2013-06-16 14:57:00,79.1,64.0,29.82,SSW,209,1.0,4.0,60,0.00,,,0.00,229,Wunderground v.1.15,2013-06-16 18:57:00,
2013-06-16 15:02:00,79.2,65.5,29.82,NNE,22,0.0,4.0,63,0.00,,,0.00,272,Wunderground v.1.15,2013-06-16 19:02:00,
2013-06-16 15:07:00,79.9,65.7,29.82,ESE,117,2.0,5.0,62,0.00,,,0.00,258,Wunderground v.1.15,2013-06-16 19:07:00,
2013-06-16 15:12:00,79.8,65.6,29.82,ESE,104,1.0,5.0,62,0.00,,,0.00,279,Wunderground v.1.15,2013-06-16 19:12:00,
2013-06-16 15:17:00,79.6,65.9,29.83,NNE,33,1.0,5.0,63,0.00,,,0.00,165,Wunderground v.1.15,2013-06-16 19:17:00,
2013-06-16 15:22:00,79.4,65.2,29.82,SW,219,0.0,3.0,62,0.00,,,0.00,216,Wunderground v.1.15,2013-06-16 19:22:00,
2013-06-16 15:27:00,79.9,67.1,29.82,NW,311,1.0,5.0,65,0.00,,,0.00,178,Wunderground v.1.15,2013-06-16 19:27:00,
2013-06-16 15:32:00,81.1,66.8,29.82,SSW,209,2.0,4.0,62,0.00,,,0.00,258,Wunderground v.1.15,2013-06-16 19:32:00,
2013-06-16 15:37:00,80.6,64.9,29.82,East,96,5.0,5.0,59,0.00,,,0.00,174,Wunderground v.1.15,2013-06-16 19:37:00,
2013-06-16 15:42:00,79.9,67.5,29.82,North,355,2.0,3.0,66,0.00,,,0.00,153,Wunderground v.1.15,2013-06-16 19:42:00,
2013-06-16 15:47:00,79.2,64.1,29.82,SW,235,0.0,4.0,60,0.00,,,0.00,100,Wunderground v.1.15,2013-06-16 19:47:00,
2013-06-16 15:52:00,78.8,64.7,29.82,NNE,33,2.0,4.0,62,0.00,,,0.00,58,Wunderground v.1.15,2013-06-16 19:52:00,
2013-06-16 15:57:00,78.6,66.3,29.82,West,259,3.0,7.0,66,0.00,,,0.00,51,Wunderground v.1.15,2013-06-16 19:57:00,
2013-06-16 16:02:00,78.4,64.8,29.82,South,191,1.0,4.0,63,0.00,,,0.00,51,Wunderground v.1.15,2013-06-16 20:02:00,
2013-06-16 16:07:00,78.2,65.9,29.82,NNW,342,3.0,5.0,66,0.00,,,0.00,84,Wunderground v.1.15,2013-06-16 20:07:00,
2013-06-16 16:12:00,78.0,65.7,29.82,WNW,294,2.0,3.0,66,0.00,,,0.00,93,Wunderground v.1.15,2013-06-16 20:12:00,
2013-06-16 16:17:00,78.2,66.3,29.82,SSE,155,0.0,7.0,67,0.00,,,0.00,127,Wunderground v.1.15,2013-06-16 20:17:00,
2013-06-16 16:22:00,78.8,67.3,29.82,SSW,200,2.0,3.0,68,0.00,,,0.00,135,Wunderground v.1.15,2013-06-16 20:22:00,
2013-06-16 16:27:00,78.7,66.4,29.82,ENE,57,3.0,6.0,66,0.00,,,0.00,79,Wunderground v.1.15,2013-06-16 20:27:00,
2013-06-16 16:32:00,78.4,65.2,29.82,SW,223,1.0,5.0,64,0.00,,,0.00,53,Wunderground v.1.15,2013-06-16 20:32:00,
2013-06-16 16:37:00,78.2,65.5,29.82,West,278,3.0,5.0,65,0.00,,,0.00,54,Wunderground v.1.15,2013-06-16 20:37:00,
2013-06-16 16:43:00,78.0,64.8,29.83,NNE,27,3.0,6.0,64,0.00,,,0.00,42,Wunderground v.1.15,2013-06-16 20:43:00,
2013-06-16 16:48:00,77.7,65.0,29.83,East,94,3.0,6.0,65,0.00,,,0.00,47,Wunderground v.1.15,2013-06-16 20:48:00,
2013-06-16 16:53:00,77.4,64.7,29.83,NE,47,0.0,3.0,65,0.00,,,0.00,81,Wunderground v.1.15,2013-06-16 20:53:00,
2013-06-16 16:58:00,77.5,65.7,29.83,SW,225,2.0,4.0,67,0.00,,,0.00,84,Wunderground v.1.15,2013-06-16 20:58:00,
2013-06-16 17:03:00,77.6,65.8,29.82,SE,140,4.0,5.0,67,0.00,,,0.00,98,Wunderground v.1.15,2013-06-16 21:03:00,
2013-06-16 17:08:00,77.6,65.3,29.82,WSW,255,2.0,9.0,66,0.00,,,0.00,72,Wunderground v.1.15,2013-06-16 21:08:00,
2013-06-16 17:13:00,77.3,65.5,29.83,SSW,211,4.0,5.0,67,0.00,,,0.00,53,Wunderground v.1.15,2013-06-16 21:13:00,
2013-06-16 17:18:00,77.1,64.4,29.82,North,360,1.0,8.0,65,0.00,,,0.00,86,Wunderground v.1.15,2013-06-16 21:18:00,
2013-06-16 17:23:00,77.0,65.2,29.83,NNW,347,2.0,5.0,67,0.00,,,0.00,81,Wunderground v.1.15,2013-06-16 21:23:00,
2013-06-16 17:28:00,76.9,65.1,29.83,NW,319,2.0,7.0,67,0.00,,,0.00,116,Wunderground v.1.15,2013-06-16 21:28:00,
2013-06-16 17:33:00,76.8,65.4,29.83,SW,224,4.0,7.0,68,0.00,,,0.00,148,Wunderground v.1.15,2013-06-16 21:33:00,
2013-06-16 17:38:00,76.9,64.7,29.83,NNW,348,7.0,8.0,66,0.00,,,0.00,100,Wunderground v.1.15,2013-06-16 21:38:00,
2013-06-16 17:43:00,76.7,65.3,29.82,East,87,3.0,9.0,68,0.00,,,0.00,74,Wunderground v.1.15,2013-06-16 21:43:00,
2013-06-16 17:48:00,76.3,65.0,29.83,West,263,2.0,9.0,68,0.00,,,0.00,67,Wunderground v.1.15,2013-06-16 21:48:00,
2013-06-16 17:53:00,76.2,65.3,29.82,NE,36,1.0,5.0,69,0.00,,,0.00,98,Wunderground v.1.15,2013-06-16 21:53:00,
2013-06-16 17:58:00,76.2,65.7,29.82,South,188,2.0,8.0,70,0.00,,,0.00,132,Wunderground v.1.15,2013-06-16 21:58:00,
2013-06-16 18:03:00,76.5,66.8,29.83,SW,227,2.0,3.0,72,0.00,,,0.00,141,Wunderground v.1.15,2013-06-16 22:03:00,
2013-06-16 18:08:00,76.9,66.4,29.82,WSW,251,2.0,8.0,70,0.00,,,0.00,199,Wunderground v.1.15,2013-06-16 22:08:00,
2013-06-16 18:13:00,77.3,65.9,29.82,ENE,60,1.0,8.0,68,0.00,,,0.00,171,Wunderground v.1.15,2013-06-16 22:13:00,
2013-06-16 18:18:00,77.5,66.5,29.82,ENE,67,3.0,8.0,69,0.00,,,0.00,156,Wunderground v.1.15,2013-06-16 22:18:00,
2013-06-16 18:23:00,77.5,66.1,29.82,ENE,76,3.0,9.0,68,0.00,,,0.00,148,Wunderground v.1.15,2013-06-16 22:23:00,
2013-06-16 18:28:00,77.4,66.8,29.82,NNW,327,6.0,9.0,70,0.00,,,0.00,139,Wunderground v.1.15,2013-06-16 22:28:00,
2013-06-16 18:33:00,77.1,65.7,29.82,SSW,205,2.0,11.0,68,0.00,,,0.00,135,Wunderground v.1.15,2013-06-16 22:33:00,
2013-06-16 18:38:00,76.8,65.9,29.82,WSW,242,3.0,11.0,69,0.00,,,0.00,127,Wunderground v.1.15,2013-06-16 22:38:00,
2013-06-16 18:43:00,76.6,65.7,29.82,West,271,3.0,7.0,69,0.00,,,0.00,113,Wunderground v.1.15,2013-06-16 22:43:00,
2013-06-16 18:48:00,76.4,65.9,29.82,NW,313,1.0,10.0,70,0.00,,,0.00,102,Wunderground v.1.15,2013-06-16 22:48:00,
2013-06-16 18:53:00,76.4,66.3,29.82,SSE,150,3.0,5.0,71,0.00,,,0.00,91,Wunderground v.1.15,2013-06-16 22:53:00,
2013-06-16 18:58:00,76.2,65.7,29.82,SW,234,2.0,10.0,70,0.00,,,0.00,81,Wunderground v.1.15,2013-06-16 22:58:00,
2013-06-16 19:03:00,76.0,65.9,29.82,SSW,196,4.0,9.0,71,0.00,,,0.00,28,Wunderground v.1.15,2013-06-16 23:03:00,
2013-06-16 19:08:00,75.5,65.4,29.82,SSW,196,2.0,9.0,71,0.00,,,0.00,19,Wunderground v.1.15,2013-06-16 23:08:00,
2013-06-16 19:13:00,75.2,65.9,29.82,NNW,346,1.0,4.0,73,0.00,,,0.00,18,Wunderground v.1.15,2013-06-16 23:13:00,
2013-06-16 19:18:00,74.9,66.4,29.82,South,169,1.0,4.0,75,0.00,,,0.00,16,Wunderground v.1.15,2013-06-16 23:18:00,
2013-06-16 19:23:00,74.6,65.8,29.82,NW,319,1.0,5.0,74,0.00,,,0.00,16,Wunderground v.1.15,2013-06-16 23:23:00,
2013-06-16 19:28:00,74.5,65.7,29.83,ESE,121,2.0,5.0,74,0.00,,,0.00,12,Wunderground v.1.15,2013-06-16 23:28:00,
2013-06-16 19:33:00,74.4,65.6,29.82,NNE,28,2.0,6.0,74,0.00,,,0.00,12,Wunderground v.1.15,2013-06-16 23:33:00,
2013-06-16 19:38:00,74.4,65.6,29.82,NNW,333,6.0,6.0,74,0.00,,,0.00,11,Wunderground v.1.15,2013-06-16 23:38:00,
2013-06-16 19:43:00,74.3,65.5,29.82,NW,318,3.0,6.0,74,0.00,,,0.00,11,Wunderground v.1.15,2013-06-16 23:43:00,
2013-06-16 19:48:00,74.1,65.7,29.83,SW,225,2.0,6.0,75,0.00,,,0.00,9,Wunderground v.1.15,2013-06-16 23:48:00,
2013-06-16 19:54:00,74.0,65.6,29.83,ENE,73,2.0,7.0,75,0.00,,,0.00,7,Wunderground v.1.15,2013-06-16 23:54:00,
2013-06-16 19:59:00,73.9,65.5,29.83,NNE,30,1.0,7.0,75,0.00,,,0.00,7,Wunderground v.1.15,2013-06-16 23:59:00,
2013-06-16 20:04:00,73.8,65.4,29.83,NW,315,0.0,5.0,75,0.00,,,0.00,5,Wunderground v.1.15,2013-06-17 00:04:00,
2013-06-16 20:09:00,73.4,65.4,29.83,NW,322,2.0,5.0,76,0.00,,,0.00,5,Wunderground v.1.15,2013-06-17 00:09:00,
2013-06-16 20:14:00,73.2,65.2,29.83,WNW,298,2.0,3.0,76,0.00,,,0.00,0,Wunderground v.1.15,2013-06-17 00:14:00,
2013-06-16 20:19:00,73.2,65.2,29.84,SSW,207,1.0,3.0,76,0.00,,,0.00,0,Wunderground v.1.15,2013-06-17 00:19:00,
2013-06-16 20:24:00,73.1,65.1,29.84,West,272,1.0,3.0,76,0.00,,,0.00,0,Wunderground v.1.15,2013-06-17 00:24:00,
2013-06-16 20:29:00,73.0,65.0,29.84,North,11,1.0,4.0,76,0.00,,,0.00,0,Wunderground v.1.15,2013-06-17 00:29:00,
2013-06-16 20:34:00,72.8,65.5,29.84,SSE,161,0.0,3.0,78,0.00,,,0.00,0,Wunderground v.1.15,2013-06-17 00:34:00,
2013-06-16 20:39:00,72.6,65.3,29.84,NW,310,1.0,3.0,78,0.00,,,0.00,0,Wunderground v.1.15,2013-06-17 00:39:00,
2013-06-16 20:44:00,72.4,65.2,29.84,SSW,207,0.0,2.0,78,0.00,,,0.00,0,Wunderground v.1.15,2013-06-17 00:44:00,
2013-06-16 20:49:00,72.1,65.2,29.84,WSW,238,0.0,2.0,79,0.00,,,0.00,0,Wunderground v.1.15,2013-06-17 00:49:00,
2013-06-16 20:54:00,71.7,65.2,29.85,SW,233,0.0,1.0,80,0.00,,,0.00,0,Wunderground v.1.15,2013-06-17 00:54:00,
2013-06-16 20:59:00,71.3,65.2,29.85,West,277,0.0,2.0,81,0.00,,,0.00,0,Wunderground v.1.15,2013-06-17 00:59:00,
2013-06-16 21:04:00,71.0,65.2,29.85,West,277,0.0,1.0,82,0.00,,,0.00,0,Wunderground v.1.15,2013-06-17 01:04:00,
2013-06-16 21:09:00,70.6,65.2,29.85,West,277,0.0,2.0,83,0.00,,,0.00,0,Wunderground v.1.15,2013-06-17 01:09:00,
2013-06-16 21:14:00,70.2,65.1,29.85,West,277,0.0,1.0,84,0.00,,,0.00,0,Wunderground v.1.15,2013-06-17 01:14:00,
2013-06-16 21:19:00,69.7,65.0,29.86,West,277,0.0,1.0,85,0.00,,,0.00,0,Wunderground v.1.15,2013-06-17 01:19:00,
2013-06-16 21:25:00,69.3,64.9,29.86,West,277,0.0,0.0,86,0.00,,,0.00,0,Wunderground v.1.15,2013-06-17 01:25:00,
2013-06-16 21:30:00,69.0,64.6,29.87,West,277,0.0,0.0,86,0.00,,,0.00,0,Wunderground v.1.15,2013-06-17 01:30:00,
2013-06-16 21:35:00,68.7,65.0,29.87,West,277,0.0,1.0,88,0.00,,,0.00,0,Wunderground v.1.15,2013-06-17 01:35:00,
2013-06-16 21:40:00,68.4,65.0,29.87,West,277,0.0,0.0,89,0.00,,,0.00,0,Wunderground v.1.15,2013-06-17 01:40:00,
2013-06-16 21:45:00,68.2,64.8,29.87,West,277,0.0,0.0,89,0.00,,,0.00,0,Wunderground v.1.15,2013-06-17 01:45:00,
2013-06-16 21:50:00,68.0,65.0,29.88,West,277,0.0,0.0,90,0.00,,,0.00,0,Wunderground v.1.15,2013-06-17 01:50:00,
2013-06-16 21:55:00,67.9,65.2,29.88,West,277,0.0,1.0,91,0.00,,,0.00,0,Wunderground v.1.15,2013-06-17 01:55:00,
2013-06-16 22:00:00,67.6,64.9,29.88,West,277,0.0,0.0,91,0.00,,,0.00,0,Wunderground v.1.15,2013-06-17 02:00:00,
2013-06-16 22:05:00,67.4,64.7,29.88,West,277,0.0,0.0,91,0.00,,,0.00,0,Wunderground v.1.15,2013-06-17 02:05:00,
2013-06-16 22:11:00,67.1,64.4,29.88,West,277,0.0,0.0,91,0.00,,,0.00,0,Wunderground v.1.15,2013-06-17 02:11:00,
2013-06-16 22:16:00,66.8,64.1,29.88,West,277,0.0,0.0,91,0.00,,,0.00,0,Wunderground v.1.15,2013-06-17 02:16:00,
2013-06-16 22:21:00,66.5,64.1,29.88,West,277,0.0,0.0,92,0.00,,,0.00,0,Wunderground v.1.15,2013-06-17 02:21:00,
2013-06-16 22:26:00,66.1,64.0,29.89,West,277,0.0,0.0,93,0.00,,,0.00,0,Wunderground v.1.15,2013-06-17 02:26:00,
2013-06-16 22:32:00,65.9,63.8,29.89,West,277,0.0,0.0,93,0.00,,,0.00,0,Wunderground v.1.15,2013-06-17 02:32:00,
2013-06-16 22:37:00,65.5,63.4,29.89,West,277,0.0,0.0,93,0.00,,,0.00,0,Wunderground v.1.15,2013-06-17 02:37:00,
2013-06-16 22:42:00,65.3,63.5,29.88,West,277,0.0,0.0,94,0.00,,,0.00,0,Wunderground v.1.15,2013-06-17 02:42:00,
2013-06-16 22:47:00,65.1,63.6,29.88,West,277,0.0,0.0,95,0.00,,,0.00,0,Wunderground v.1.15,2013-06-17 02:47:00,
2013-06-16 22:52:00,64.9,63.4,29.88,West,277,0.0,0.0,95,0.00,,,0.00,0,Wunderground v.1.15,2013-06-17 02:52:00,
2013-06-16 22:57:00,64.6,63.1,29.88,West,277,0.0,0.0,95,0.00,,,0.00,0,Wunderground v.1.15,2013-06-17 02:57:00,
2013-06-16 23:02:00,64.3,62.8,29.88,West,277,0.0,0.0,95,0.00,,,0.00,0,Wunderground v.1.15,2013-06-17 03:02:00,
2013-06-16 23:07:00,64.1,62.6,29.88,West,277,0.0,0.0,95,0.00,,,0.00,0,Wunderground v.1.15,2013-06-17 03:07:00,
2013-06-16 23:12:00,63.9,62.4,29.89,West,277,0.0,0.0,95,0.00,,,0.00,0,Wunderground v.1.15,2013-06-17 03:12:00,
2013-06-16 23:17:00,63.7,62.5,29.89,West,277,0.0,0.0,96,0.00,,,0.00,0,Wunderground v.1.15,2013-06-17 03:17:00,
2013-06-16 23:22:00,63.6,62.4,29.88,West,277,0.0,0.0,96,0.00,,,0.00,0,Wunderground v.1.15,2013-06-17 03:22:00,
2013-06-16 23:27:00,63.4,62.2,29.88,West,277,1.0,1.0,96,0.00,,,0.00,0,Wunderground v.1.15,2013-06-17 03:27:00,
2013-06-16 23:32:00,63.2,62.0,29.88,West,277,0.0,1.0,96,0.00,,,0.00,0,Wunderground v.1.15,2013-06-17 03:32:00,
2013-06-16 23:37:00,63.2,62.3,29.88,West,277,0.0,1.0,97,0.00,,,0.00,0,Wunderground v.1.15,2013-06-17 03:37:00,
2013-06-16 23:42:00,63.2,62.3,29.89,West,277,0.0,0.0,97,0.00,,,0.00,0,Wunderground v.1.15,2013-06-17 03:42:00,
2013-06-16 23:47:00,62.9,61.7,29.89,West,277,0.0,0.0,96,0.00,,,0.00,0,Wunderground v.1.15,2013-06-17 03:47:00,
2013-06-16 23:52:00,62.7,61.5,29.89,West,277,0.0,1.0,96,0.00,,,0.00,0,Wunderground v.1.15,2013-06-17 03:52:00,
2013-06-16 23:57:00,62.5,61.3,29.89,West,277,0.0,1.0,96,0.00,,,0.00,0,Wunderground v.1.15,2013-06-17 03:57:00,